createdAt,value
2019-06-09T00:01:42.998Z,14.48
2019-06-09T00:04:11.575Z,14.44
2019-06-09T00:06:41.538Z,14.41
2019-06-09T00:09:11.217Z,14.37
2019-06-09T00:11:40.625Z,14.38
2019-06-09T00:14:11.149Z,14.36
2019-06-09T00:16:41.587Z,14.32
2019-06-09T00:19:11.041Z,14.29
2019-06-09T00:21:40.559Z,14.26
2019-06-09T00:24:11.067Z,14.21
2019-06-09T00:26:41.246Z,14.17
2019-06-09T00:29:11.700Z,14.17
2019-06-09T00:31:51.829Z,14.12
2019-06-09T00:34:20.899Z,14.09
2019-06-09T00:36:50.572Z,14.08
2019-06-09T00:39:20.216Z,14.08
2019-06-09T00:41:49.689Z,14.05
2019-06-09T00:44:22.317Z,14.04
2019-06-09T00:46:51.675Z,14.07
2019-06-09T00:49:21.046Z,14.03
2019-06-09T00:51:50.628Z,14.02
2019-06-09T00:54:20.228Z,13.96
2019-06-09T00:56:49.727Z,13.94
2019-06-09T00:59:20.898Z,13.91
2019-06-09T01:01:59.559Z,13.90
2019-06-09T01:04:21.516Z,13.89
2019-06-09T01:06:50.901Z,13.88
2019-06-09T01:09:20.643Z,13.89
2019-06-09T01:11:50.022Z,13.89
2019-06-09T01:14:20.006Z,13.86
2019-06-09T01:16:49.663Z,13.80
2019-06-09T01:19:20.196Z,13.76
2019-06-09T01:21:49.944Z,13.74
2019-06-09T01:24:20.402Z,13.74
2019-06-09T01:26:49.846Z,13.72
2019-06-09T01:29:20.665Z,13.70
2019-06-09T01:31:51.121Z,13.68
2019-06-09T01:34:22.569Z,13.62
2019-06-09T01:36:51.975Z,13.59
2019-06-09T01:39:22.750Z,13.58
2019-06-09T01:41:52.369Z,13.55
2019-06-09T01:44:22.986Z,13.52
2019-06-09T01:46:52.780Z,13.51
2019-06-09T01:49:22.797Z,13.47
2019-06-09T01:51:52.215Z,13.44
2019-06-09T01:54:22.637Z,13.42
2019-06-09T01:56:52.093Z,13.40
2019-06-09T01:59:23.308Z,13.39
2019-06-09T02:01:52.902Z,13.38
2019-06-09T02:04:23.245Z,13.38
2019-06-09T02:06:52.775Z,13.40
2019-06-09T02:09:23.801Z,13.40
2019-06-09T02:11:53.394Z,13.38
2019-06-09T02:14:24.113Z,13.36
2019-06-09T02:16:53.867Z,13.32
2019-06-09T02:19:25.072Z,13.25
2019-06-09T02:21:54.364Z,13.21
2019-06-09T02:24:25.505Z,13.18
2019-06-09T02:26:54.912Z,13.15
2019-06-09T02:29:25.624Z,13.10
2019-06-09T02:31:59.492Z,13.07
2019-06-09T02:34:34.921Z,13.06
2019-06-09T02:36:57.830Z,13.01
2019-06-09T02:39:32.745Z,12.99
2019-06-09T02:41:58.262Z,12.98
2019-06-09T02:44:35.476Z,12.97
2019-06-09T02:47:02.284Z,12.92
2019-06-09T02:49:40.348Z,12.87
2019-06-09T02:52:03.454Z,12.87
2019-06-09T02:54:40.850Z,12.85
2019-06-09T02:57:04.194Z,12.80
2019-06-09T02:59:41.504Z,12.77
2019-06-09T03:02:05.470Z,12.76
2019-06-09T03:04:45.308Z,12.75
2019-06-09T03:07:06.295Z,12.77
2019-06-09T03:09:40.894Z,12.78
2019-06-09T03:12:07.571Z,12.78
2019-06-09T03:14:42.803Z,12.80
2019-06-09T03:17:11.557Z,12.83
2019-06-09T03:19:43.546Z,12.85
2019-06-09T03:22:12.758Z,12.83
2019-06-09T03:24:46.062Z,12.87
2019-06-09T03:27:14.200Z,12.88
2019-06-09T03:29:47.334Z,12.86
2019-06-09T03:32:32.696Z,12.85
2019-06-09T03:37:56.930Z,12.86
2019-06-09T03:39:48.375Z,12.90
2019-06-09T03:42:21.673Z,12.92
2019-06-09T03:44:52.643Z,12.90
2019-06-09T03:47:26.967Z,12.90
2019-06-09T03:49:52.321Z,12.91
2019-06-09T03:52:26.243Z,12.95
2019-06-09T03:54:53.553Z,12.95
2019-06-09T03:57:27.138Z,12.94
2019-06-09T03:59:54.368Z,12.97
2019-06-09T04:02:28.182Z,12.98
2019-06-09T04:04:55.142Z,12.98
2019-06-09T04:07:28.455Z,12.97
2019-06-09T04:09:55.861Z,12.99
2019-06-09T04:12:28.744Z,13.03
2019-06-09T04:14:56.293Z,13.06
2019-06-09T04:17:26.978Z,13.11
2019-06-09T04:19:57.324Z,13.13
2019-06-09T04:22:33.921Z,13.20
2019-06-09T04:24:58.326Z,13.26
2019-06-09T04:27:30.653Z,13.34
2019-06-09T04:30:02.756Z,13.41
2019-06-09T04:32:37.101Z,13.41
2019-06-09T04:35:03.834Z,13.48
2019-06-09T04:37:36.325Z,13.53
2019-06-09T04:40:07.444Z,13.58
2019-06-09T04:42:40.834Z,13.66
2019-06-09T04:45:11.728Z,13.73
2019-06-09T04:47:41.825Z,13.79
2019-06-09T04:50:13.202Z,13.86
2019-06-09T04:52:46.238Z,13.91
2019-06-09T04:55:13.470Z,13.98
2019-06-09T04:57:45.590Z,14.00
2019-06-09T05:00:18.222Z,14.03
2019-06-09T05:02:47.699Z,14.12
2019-06-09T05:05:18.459Z,14.19
2019-06-09T05:07:58.149Z,14.29
2019-06-09T05:10:22.687Z,14.44
2019-06-09T05:12:52.831Z,14.60
2019-06-09T05:15:22.922Z,14.68
2019-06-09T05:17:53.574Z,14.72
2019-06-09T05:20:23.469Z,14.77
2019-06-09T05:22:54.122Z,14.86
2019-06-09T05:25:23.727Z,14.97
2019-06-09T05:27:54.439Z,15.11
2019-06-09T05:30:24.133Z,15.21
2019-06-09T05:32:53.500Z,15.33
2019-06-09T05:35:23.410Z,15.45
2019-06-09T05:37:53.079Z,15.55
2019-06-09T05:40:22.657Z,15.60
2019-06-09T05:42:52.217Z,15.59
2019-06-09T05:45:21.571Z,15.60
2019-06-09T05:47:51.455Z,15.62
2019-06-09T05:50:22.136Z,15.62
2019-06-09T05:52:52.027Z,15.68
2019-06-09T05:55:21.676Z,15.78
2019-06-09T05:57:51.217Z,15.89
2019-06-09T06:00:21.730Z,15.96
2019-06-09T06:02:52.336Z,16.04
2019-06-09T06:05:21.813Z,16.10
2019-06-09T06:07:51.437Z,16.25
2019-06-09T06:10:21.374Z,16.34
2019-06-09T06:12:51.712Z,16.38
2019-06-09T06:15:21.923Z,16.42
2019-06-09T06:17:51.450Z,16.49
2019-06-09T06:20:21.822Z,16.55
2019-06-09T06:22:51.330Z,16.57
2019-06-09T06:25:23.118Z,16.60
2019-06-09T06:27:52.273Z,16.60
2019-06-09T06:30:22.056Z,16.64
2019-06-09T06:32:51.674Z,16.60
2019-06-09T06:35:21.412Z,16.57
2019-06-09T06:37:55.213Z,16.67
2019-06-09T06:40:21.764Z,16.78
2019-06-09T06:42:51.890Z,16.88
2019-06-09T06:45:21.515Z,16.95
2019-06-09T06:47:50.891Z,17.11
2019-06-09T06:50:21.245Z,17.27
2019-06-09T06:52:51.890Z,17.40
2019-06-09T06:55:21.435Z,17.44
2019-06-09T06:57:51.313Z,17.50
2019-06-09T07:00:22.808Z,17.51
2019-06-09T07:02:52.687Z,17.51
2019-06-09T07:05:22.603Z,17.51
2019-06-09T07:08:04.768Z,17.62
2019-06-09T07:10:23.389Z,17.79
2019-06-09T07:12:53.243Z,17.96
2019-06-09T07:15:22.600Z,18.14
2019-06-09T07:17:54.015Z,18.29
2019-06-09T07:20:23.342Z,18.28
2019-06-09T07:22:53.296Z,18.34
2019-06-09T07:25:23.746Z,18.36
2019-06-09T07:27:55.514Z,18.41
2019-06-09T07:30:24.169Z,18.44
2019-06-09T07:32:56.978Z,18.49
2019-06-09T07:35:26.439Z,18.69
2019-06-09T07:38:16.536Z,18.89
2019-06-09T07:40:27.119Z,19.08
2019-06-09T07:42:56.624Z,19.33
2019-06-09T07:45:25.996Z,19.49
2019-06-09T07:47:56.334Z,19.71
2019-06-09T07:50:25.913Z,19.94
2019-06-09T07:52:59.039Z,20.01
2019-06-09T07:55:26.785Z,20.06
2019-06-09T07:57:56.142Z,20.09
2019-06-09T08:00:25.826Z,20.17
2019-06-09T08:02:55.181Z,20.30
2019-06-09T08:05:24.849Z,20.34
2019-06-09T08:07:54.701Z,20.37
2019-06-09T08:10:24.065Z,20.48
2019-06-09T08:12:55.548Z,20.68
2019-06-09T08:15:24.798Z,20.85
2019-06-09T08:17:55.080Z,20.97
2019-06-09T08:20:24.511Z,21.18
2019-06-09T08:22:55.950Z,21.43
2019-06-09T08:25:25.388Z,21.52
2019-06-09T08:27:55.167Z,21.44
2019-06-09T08:30:28.288Z,21.33
2019-06-09T08:32:57.960Z,21.36
2019-06-09T08:35:27.385Z,21.57
2019-06-09T08:38:00.639Z,21.69
2019-06-09T08:44:16.309Z,21.63
2019-06-09T08:46:46.242Z,21.96
2019-06-09T08:55:24.470Z,22.72
2019-06-09T08:57:55.850Z,22.29
2019-06-09T09:03:53.223Z,21.81
2019-06-09T09:06:23.276Z,22.17
2019-06-09T09:09:09.650Z,22.54
2019-06-09T09:11:24.308Z,22.82
2019-06-09T09:13:56.515Z,22.99
2019-06-09T09:16:25.092Z,23.11
2019-06-09T09:18:58.729Z,23.18
2019-06-09T09:21:25.772Z,23.19
2019-06-09T09:24:36.274Z,23.02
2019-06-09T09:26:26.473Z,22.88
2019-06-09T09:28:57.461Z,22.86
2019-06-09T09:31:27.346Z,22.91
2019-06-09T09:33:57.001Z,23.08
2019-06-09T09:36:26.376Z,23.35
2019-06-09T09:38:57.204Z,23.48
2019-06-09T09:41:26.568Z,23.58
2019-06-09T09:43:57.987Z,23.73
2019-06-09T09:46:28.403Z,23.87
2019-06-09T09:48:58.101Z,23.90
2019-06-09T09:55:18.245Z,23.94
2019-06-09T09:57:48.242Z,24.36
2019-06-09T10:00:18.207Z,24.37
2019-06-09T10:02:48.475Z,24.37
2019-06-09T10:06:32.927Z,24.50
2019-06-09T10:09:10.988Z,24.32
2019-06-09T10:11:41.423Z,24.45
2019-06-09T10:14:14.272Z,24.77
2019-06-09T10:16:42.442Z,24.79
2019-06-09T10:19:12.087Z,24.61
2019-06-09T10:21:41.696Z,24.47
2019-06-09T10:24:11.216Z,24.55
2019-06-09T10:26:42.297Z,24.68
2019-06-09T10:32:31.494Z,24.85
2019-06-09T10:35:03.722Z,25.48
2019-06-09T10:37:33.171Z,25.63
2019-06-09T10:40:16.784Z,25.38
2019-06-09T10:42:34.372Z,25.51
2019-06-09T10:45:05.484Z,25.48
2019-06-09T10:47:35.155Z,25.36
2019-06-09T10:50:09.116Z,25.10
2019-06-09T10:52:40.972Z,24.84
2019-06-09T10:55:09.500Z,24.76
2019-06-09T10:57:41.603Z,24.97
2019-06-09T11:00:26.145Z,25.40
2019-06-09T11:02:43.643Z,26.02
2019-06-09T11:05:13.629Z,26.24
2019-06-09T11:07:43.257Z,26.24
2019-06-09T11:10:23.210Z,26.58
2019-06-09T11:12:45.455Z,26.58
2019-06-09T11:15:15.569Z,26.59
2019-06-09T11:17:45.487Z,26.59
2019-06-09T11:20:15.290Z,26.59
2019-06-09T11:22:44.652Z,26.93
2019-06-09T11:25:18.028Z,27.18
2019-06-09T11:27:45.453Z,27.48
2019-06-09T11:30:20.671Z,27.45
2019-06-09T11:32:46.954Z,27.37
2019-06-09T11:35:16.651Z,27.55
2019-06-09T11:37:46.761Z,27.37
2019-06-09T11:40:29.948Z,27.11
2019-06-09T11:42:48.461Z,26.99
2019-06-09T11:45:20.859Z,27.05
2019-06-09T11:47:51.896Z,27.11
2019-06-09T11:50:21.903Z,27.02
2019-06-09T11:52:51.808Z,27.01
2019-06-09T11:55:23.989Z,27.25
2019-06-09T11:57:53.571Z,27.41
2019-06-09T12:00:23.999Z,27.39
2019-06-09T12:02:54.021Z,27.54
2019-06-09T12:05:23.951Z,27.44
2019-06-09T12:07:53.781Z,27.55
2019-06-09T12:10:23.713Z,27.84
2019-06-09T12:12:54.108Z,27.89
2019-06-09T12:15:23.721Z,27.71
2019-06-09T12:17:54.116Z,27.58
2019-06-09T12:20:23.454Z,27.54
2019-06-09T12:22:54.596Z,27.45
2019-06-09T12:25:24.316Z,27.21
2019-06-09T12:27:53.682Z,27.19
2019-06-09T12:30:24.809Z,27.30
2019-06-09T12:32:55.704Z,27.36
2019-06-09T12:35:25.074Z,27.67
2019-06-09T12:37:54.735Z,28.11
2019-06-09T12:40:24.756Z,28.24
2019-06-09T12:42:54.393Z,28.08
2019-06-09T12:45:25.392Z,28.07
2019-06-09T12:47:54.771Z,27.93
2019-06-09T12:50:24.438Z,27.99
2019-06-09T12:52:53.972Z,28.29
2019-06-09T12:55:23.749Z,28.46
2019-06-09T12:57:53.435Z,28.69
2019-06-09T13:00:25.755Z,29.04
2019-06-09T13:02:54.839Z,28.99
2019-06-09T13:05:24.549Z,28.54
2019-06-09T13:07:54.157Z,28.22
2019-06-09T13:10:23.524Z,28.02
2019-06-09T13:12:52.894Z,28.10
2019-06-09T13:15:22.441Z,28.23
2019-06-09T13:17:51.810Z,28.42
2019-06-09T13:20:23.734Z,28.88
2019-06-09T13:22:52.523Z,28.96
2019-06-09T13:25:22.170Z,28.57
2019-06-09T13:27:51.788Z,28.33
2019-06-09T13:30:21.983Z,28.31
2019-06-09T13:32:51.945Z,28.38
2019-06-09T13:35:22.267Z,28.31
2019-06-09T13:37:52.062Z,27.91
2019-06-09T13:40:21.742Z,27.57
2019-06-09T13:42:52.501Z,27.58
2019-06-09T13:45:24.071Z,27.86
2019-06-09T13:47:53.740Z,28.11
2019-06-09T13:50:23.099Z,28.51
2019-06-09T13:52:52.621Z,29.08
2019-06-09T13:55:22.252Z,29.29
2019-06-09T13:57:51.759Z,29.09
2019-06-09T14:00:23.657Z,28.81
2019-06-09T14:02:53.118Z,28.54
2019-06-09T14:05:24.966Z,28.35
2019-06-09T14:07:54.074Z,28.10
2019-06-09T14:10:23.460Z,27.93
2019-06-09T14:12:52.818Z,27.82
2019-06-09T14:19:00.916Z,27.93
2019-06-09T14:21:31.462Z,28.01
2019-06-09T14:24:02.316Z,28.22
2019-06-09T14:26:31.895Z,28.20
2019-06-09T14:29:02.501Z,28.10
2019-06-09T14:31:32.110Z,28.27
2019-06-09T14:34:03.475Z,28.53
2019-06-09T14:36:32.976Z,28.61
2019-06-09T14:45:42.847Z,28.64
2019-06-09T14:48:13.806Z,28.36
2019-06-09T14:50:43.298Z,28.10
2019-06-09T14:53:16.293Z,28.12
2019-06-09T14:59:31.666Z,28.14
2019-06-09T15:02:02.266Z,27.95
2019-06-09T15:04:32.892Z,27.70
2019-06-09T15:07:02.378Z,27.72
2019-06-09T15:09:31.768Z,27.82
2019-06-09T15:12:02.346Z,28.02
2019-06-09T15:20:25.008Z,27.70
2019-06-09T15:22:54.622Z,27.53
2019-06-09T15:25:24.011Z,27.48
2019-06-09T15:27:53.371Z,27.61
2019-06-09T15:30:26.682Z,27.98
2019-06-09T15:39:45.672Z,28.37
2019-06-09T15:42:16.508Z,28.34
2019-06-09T15:44:46.873Z,28.25
2019-06-09T15:47:17.541Z,28.19
2019-06-09T15:49:46.964Z,28.12
2019-06-09T15:52:18.050Z,28.01
2019-06-09T15:54:47.431Z,27.95
2019-06-09T15:57:17.124Z,27.83
2019-06-09T15:59:46.754Z,27.49
2019-06-09T16:02:17.324Z,27.49
2019-06-09T16:04:47.007Z,27.37
2019-06-09T16:07:20.987Z,27.11
2019-06-09T16:09:54.038Z,26.86
2019-06-09T16:12:25.208Z,26.55
2019-06-09T16:14:54.851Z,26.32
2019-06-09T16:17:25.706Z,26.24
2019-06-09T16:19:55.400Z,26.20
2019-06-09T16:22:26.555Z,26.15
2019-06-09T16:24:57.151Z,26.06
2019-06-09T16:27:42.220Z,26.06
2019-06-09T16:29:58.213Z,26.02
2019-06-09T16:32:28.330Z,25.99
2019-06-09T16:35:00.646Z,26.09
2019-06-09T16:37:31.191Z,26.19
2019-06-09T16:40:00.993Z,26.22
2019-06-09T16:42:30.581Z,26.20
2019-06-09T16:49:16.961Z,26.24
2019-06-09T16:51:46.337Z,26.16
2019-06-09T16:54:15.690Z,25.99
2019-06-09T16:56:45.102Z,25.91
2019-06-09T16:59:16.035Z,25.92
2019-06-09T17:01:45.475Z,25.85
2019-06-09T17:04:15.156Z,25.81
2019-06-09T17:06:44.521Z,25.77
2019-06-09T17:09:14.445Z,25.63
2019-06-09T17:11:44.116Z,25.48
2019-06-09T17:14:13.782Z,25.36
2019-06-09T17:16:44.487Z,25.31
2019-06-09T17:19:14.409Z,25.20
2019-06-09T17:21:43.792Z,25.11
2019-06-09T17:24:13.457Z,25.00
2019-06-09T17:26:43.164Z,24.97
2019-06-09T17:29:12.520Z,24.96
2019-06-09T17:31:42.196Z,24.85
2019-06-09T17:34:12.794Z,24.78
2019-06-09T17:36:42.234Z,24.65
2019-06-09T17:39:12.645Z,24.53
2019-06-09T17:41:42.423Z,24.53
2019-06-09T17:44:15.559Z,24.59
2019-06-09T17:46:44.452Z,24.59
2019-06-09T17:49:14.147Z,24.56
2019-06-09T17:51:43.888Z,24.53
2019-06-09T17:54:14.018Z,24.52
2019-06-09T17:56:43.596Z,24.47
2019-06-09T17:59:13.256Z,24.45
2019-06-09T18:01:42.625Z,24.45
2019-06-09T18:04:12.314Z,24.39
2019-06-09T18:06:41.904Z,24.33
2019-06-09T18:09:11.542Z,24.27
2019-06-09T18:11:42.183Z,24.20
2019-06-09T18:14:23.633Z,24.17
2019-06-09T18:16:43.361Z,24.12
2019-06-09T18:19:12.720Z,24.04
2019-06-09T18:21:42.329Z,23.95
2019-06-09T18:24:12.110Z,23.91
2019-06-09T18:26:41.554Z,23.86
2019-06-09T18:29:10.977Z,23.80
2019-06-09T18:31:42.735Z,23.78
2019-06-09T18:34:13.709Z,23.74
2019-06-09T18:39:57.853Z,23.74
2019-06-09T18:42:28.083Z,23.76
2019-06-09T18:45:01.206Z,23.77
2019-06-09T18:47:29.505Z,23.74
2019-06-09T18:50:01.176Z,23.69
2019-06-09T18:52:35.574Z,23.67
2019-06-09T18:55:02.738Z,23.62
2019-06-09T18:57:33.930Z,23.56
2019-06-09T19:00:07.243Z,23.51
2019-06-09T19:02:37.282Z,23.46
2019-06-09T19:05:07.486Z,23.43
2019-06-09T19:07:38.469Z,23.41
2019-06-09T19:10:08.618Z,23.42
2019-06-09T19:12:37.998Z,23.43
2019-06-09T19:15:09.972Z,23.44
2019-06-09T19:17:39.639Z,23.46
2019-06-09T19:20:11.355Z,23.48
2019-06-09T19:22:42.422Z,23.48
2019-06-09T19:25:13.238Z,23.46
2019-06-09T19:27:44.080Z,23.46
2019-06-09T19:30:16.364Z,23.44
2019-06-09T19:32:45.773Z,23.41
2019-06-09T19:35:15.773Z,23.36
2019-06-09T19:37:45.863Z,23.31
2019-06-09T19:40:16.099Z,23.28
2019-06-09T19:42:45.536Z,23.23
2019-06-09T19:45:16.756Z,23.22
2019-06-09T19:47:46.547Z,23.24
2019-06-09T19:50:17.973Z,23.22
2019-06-09T19:52:47.461Z,23.20
2019-06-09T19:55:17.284Z,23.15
2019-06-09T19:57:48.877Z,23.10
2019-06-09T20:00:23.048Z,23.09
2019-06-09T20:02:53.643Z,23.03
2019-06-09T20:05:31.040Z,22.95
2019-06-09T20:08:01.755Z,22.86
2019-06-09T20:10:39.880Z,22.82
2019-06-09T20:13:11.889Z,22.78
2019-06-09T20:15:44.374Z,22.72
2019-06-09T20:18:15.664Z,22.67
2019-06-09T20:20:46.378Z,22.59
2019-06-09T20:23:15.519Z,22.52
2019-06-09T20:25:47.096Z,22.46
2019-06-09T20:28:16.372Z,22.41
2019-06-09T20:30:46.512Z,22.39
2019-06-09T20:33:17.267Z,22.31
2019-06-09T20:35:52.531Z,22.21
2019-06-09T20:38:17.812Z,22.04
2019-06-09T20:40:54.789Z,22.04
2019-06-09T20:43:19.332Z,21.99
2019-06-09T20:46:02.097Z,21.90
2019-06-09T20:48:20.918Z,21.90
2019-06-09T20:50:54.272Z,21.94
2019-06-09T20:53:22.655Z,21.92
2019-06-09T20:56:00.514Z,21.86
2019-06-09T20:58:24.564Z,21.80
2019-06-09T21:00:56.765Z,21.68
2019-06-09T21:03:25.083Z,21.62
2019-06-09T21:05:55.406Z,21.55
2019-06-09T21:08:24.728Z,21.50
2019-06-09T21:10:55.685Z,21.46
2019-06-09T21:13:25.364Z,21.43
2019-06-09T21:16:17.101Z,21.40
2019-06-09T21:18:26.299Z,21.42
2019-06-09T21:20:55.950Z,21.46
2019-06-09T21:23:25.604Z,21.49
2019-06-09T21:25:56.013Z,21.52
2019-06-09T21:28:25.606Z,21.50
2019-06-09T21:30:58.545Z,21.44
2019-06-09T21:33:27.267Z,21.39
2019-06-09T21:35:56.719Z,21.31
2019-06-09T21:38:28.727Z,21.25
2019-06-09T21:40:57.131Z,21.19
2019-06-09T21:43:26.641Z,21.14
2019-06-09T21:45:57.603Z,21.12
2019-06-09T21:48:27.053Z,21.09
2019-06-09T21:50:56.862Z,21.06
2019-06-09T21:53:26.178Z,21.01
2019-06-09T21:55:56.816Z,20.96
2019-06-09T21:58:26.484Z,20.93
2019-06-09T22:00:58.997Z,20.90
2019-06-09T22:03:27.214Z,20.86
2019-06-09T22:05:58.243Z,20.80
2019-06-09T22:08:27.745Z,20.80
2019-06-09T22:10:57.106Z,20.76
2019-06-09T22:13:26.704Z,20.71
2019-06-09T22:15:57.863Z,20.67
2019-06-09T22:18:27.515Z,20.62
2019-06-09T22:20:58.063Z,20.61
2019-06-09T22:23:27.769Z,20.61
2019-06-09T22:25:58.142Z,20.61
2019-06-09T22:28:27.732Z,20.54
2019-06-09T22:30:58.290Z,20.49
2019-06-09T22:33:31.248Z,20.45
2019-06-09T22:36:00.805Z,20.42
2019-06-09T22:38:31.022Z,20.42
2019-06-09T22:41:02.443Z,20.39
2019-06-09T22:43:31.951Z,20.30
2019-06-09T22:46:01.442Z,20.24
2019-06-09T22:48:31.596Z,20.24
2019-06-09T22:51:04.108Z,20.27
2019-06-09T22:53:32.535Z,20.26
2019-06-09T22:56:03.554Z,20.29
2019-06-09T22:58:33.885Z,20.35
2019-06-09T23:01:03.458Z,20.43
2019-06-09T23:03:32.926Z,20.49
2019-06-09T23:06:05.466Z,20.49
2019-06-09T23:08:34.569Z,20.50
2019-06-09T23:11:04.183Z,20.44
2019-06-09T23:13:33.825Z,20.29
2019-06-09T23:16:03.229Z,20.15
2019-06-09T23:18:32.920Z,20.00
2019-06-09T23:21:03.903Z,19.84
2019-06-09T23:23:33.580Z,19.71
2019-06-09T23:26:04.374Z,19.62
2019-06-09T23:28:34.125Z,19.54
2019-06-09T23:31:04.786Z,19.48
2019-06-09T23:33:34.189Z,19.44
2019-06-09T23:36:03.851Z,19.42
2019-06-09T23:38:33.252Z,19.37
2019-06-09T23:41:05.468Z,19.34
2019-06-09T23:43:34.315Z,19.30
2019-06-09T23:46:06.404Z,19.25
2019-06-09T23:48:35.039Z,19.22
2019-06-09T23:51:07.713Z,19.16
2019-06-09T23:53:35.795Z,19.10
2019-06-09T23:56:06.427Z,19.02
2019-06-09T23:58:35.932Z,19.01
